Welcome to Northern Hawkes Bay. New Zealand.
PWS Header
      nz Flag



Hit Counter


W3C Valid W3C Valid logo


    Wairoa

Select any of the Stations below to visit their websites.










Historic Data from Weather Underground
Select the location of interest below. Wairoa is the default. Please have patience, this Data is slow to load in.
Northern Hawkes Bay Historical Data
Daily Summary for July 17, 2017 Units:  Metric    English   Both
« Previous Day
Next Day »
Daily Weekly Monthly Yearly Custom
  High: Low: Average:
Temperature: 15.3 °C 3.9 °C 9.6 °C
Dew Point: 7.3 °C 3.1 °C 5.2 °C
Humidity: 95% 56% 76%
Wind Speed: 23.3km/h 0.0km/h 7.3km/h
Wind Gust: 36.7km/h - -
Wind- - WSW
Pressure: 1024.6 hPa 1018.8 hPa -
Precipitation: 0.0 mm    
Historical Graphs
 
 
Tabular Data for July 17, 2017
Time Temperature Dew Point Pressure Wind Wind Speed Wind Gust Humidity Rainfall Rate (Hourly) solar
00:03 4.8 °C 3.9 °C 1024.6 hPa NNW 7.2 km/h 11.1 km/h 94% 0.0 mm 0 W/m2
00:08 4.7 °C 3.8 °C 1024.3 hPa NW 7.2 km/h 11.1 km/h 94% 0.0 mm 0 W/m2
00:13 4.7 °C 3.8 °C 1024.6 hPa NW 8.7 km/h 12.2 km/h 94% 0.0 mm 0 W/m2
00:18 4.7 °C 3.8 °C 1024.6 hPa NW 6.1 km/h 13.4 km/h 94% 0.0 mm 0 W/m2
00:23 4.7 °C 3.8 °C 1024.3 hPa NW 9.7 km/h 13.4 km/h 94% 0.0 mm 0 W/m2
00:28 4.7 °C 3.8 °C 1024.6 hPa NNW 8.7 km/h 15.8 km/h 94% 0.0 mm 0 W/m2
00:33 4.8 °C 3.9 °C 1024.6 hPa NNW 9.7 km/h 15.8 km/h 94% 0.0 mm 0 W/m2
00:38 4.8 °C 3.9 °C 1024.6 hPa NNW 8.7 km/h 14.8 km/h 94% 0.0 mm 0 W/m2
00:43 4.7 °C 3.8 °C 1024.3 hPa NNW 8.7 km/h 13.4 km/h 94% 0.0 mm 0 W/m2
00:48 4.7 °C 3.8 °C 1024.3 hPa North 8.7 km/h 15.8 km/h 94% 0.0 mm 0 W/m2
00:53 4.7 °C 3.8 °C 1024.3 hPa NNW 11.1 km/h 15.8 km/h 94% 0.0 mm 0 W/m2
00:58 4.6 °C 3.7 °C 1024.6 hPa NW 11.1 km/h 17.2 km/h 94% 0.0 mm 0 W/m2
01:03 4.6 °C 3.7 °C 1024.6 hPa NW 5.0 km/h 17.2 km/h 94% 0.0 mm 0 W/m2
01:08 4.5 °C 3.6 °C 1024.3 hPa NNW 3.5 km/h 17.2 km/h 94% 0.0 mm 0 W/m2
01:13 4.5 °C 3.6 °C 1024.3 hPa NNW 2.6 km/h 9.7 km/h 94% 0.0 mm 0 W/m2
01:18 4.5 °C 3.6 °C 1024.6 hPa NNW 3.5 km/h 7.2 km/h 94% 0.0 mm 0 W/m2
01:23 4.4 °C 3.5 °C 1024.3 hPa NNW 8.7 km/h 11.1 km/h 94% 0.0 mm 0 W/m2
01:28 4.6 °C 3.7 °C 1024.3 hPa NNW 5.0 km/h 11.1 km/h 94% 0.0 mm 0 W/m2
01:33 4.6 °C 3.7 °C 1024.3 hPa NNW 5.0 km/h 11.1 km/h 94% 0.0 mm 0 W/m2
01:38 4.6 °C 3.7 °C 1024.3 hPa NNW 5.0 km/h 8.7 km/h 94% 0.0 mm 0 W/m2
01:43 4.5 °C 3.6 °C 1024.3 hPa NNW 6.1 km/h 9.7 km/h 94% 0.0 mm 0 W/m2
01:48 4.3 °C 3.4 °C 1024.3 hPa NNW 8.7 km/h 12.2 km/h 94% 0.0 mm 0 W/m2
01:53 4.3 °C 3.4 °C 1024.3 hPa NNW 8.7 km/h 14.8 km/h 94% 0.0 mm 0 W/m2
01:58 4.3 °C 3.4 °C 1024.3 hPa NW 8.7 km/h 14.8 km/h 94% 0.0 mm 0 W/m2
02:03 4.3 °C 3.4 °C 1024.3 hPa NW 7.2 km/h 14.8 km/h 94% 0.0 mm 0 W/m2
02:08 4.2 °C 3.3 °C 1024.6 hPa NNW 7.2 km/h 14.8 km/h 94% 0.0 mm 0 W/m2
02:13 4.2 °C 3.3 °C 1024.6 hPa NNW 7.2 km/h 11.1 km/h 94% 0.0 mm 0 W/m2
02:18 4.1 °C 3.2 °C 1024.3 hPa NNW 11.1 km/h 14.8 km/h 94% 0.0 mm 0 W/m2
02:23 4.3 °C 3.4 °C 1024.3 hPa NNW 8.7 km/h 14.8 km/h 94% 0.0 mm 0 W/m2
02:28 4.4 °C 3.5 °C 1024.3 hPa NNW 7.2 km/h 14.8 km/h 94% 0.0 mm 0 W/m2
02:33 4.4 °C 3.5 °C 1024.3 hPa NNW 8.7 km/h 14.8 km/h 94% 0.0 mm 0 W/m2
02:38 4.4 °C 3.5 °C 1024.3 hPa NNW 5.0 km/h 14.8 km/h 94% 0.0 mm 0 W/m2
02:43 4.4 °C 3.5 °C 1023.9 hPa NNW 8.7 km/h 14.8 km/h 94% 0.0 mm 0 W/m2
02:48 4.3 °C 3.4 °C 1023.9 hPa NNW 8.7 km/h 13.4 km/h 94% 0.0 mm 0 W/m2
02:53 4.3 °C 3.4 °C 1023.9 hPa NNW 8.7 km/h 13.4 km/h 94% 0.0 mm 0 W/m2
02:58 4.3 °C 3.4 °C 1023.9 hPa NNW 9.7 km/h 14.8 km/h 94% 0.0 mm 0 W/m2
03:03 4.2 °C 3.3 °C 1023.9 hPa NNW 8.7 km/h 14.8 km/h 94% 0.0 mm 0 W/m2
03:08 4.1 °C 3.2 °C 1023.6 hPa NNW 6.1 km/h 14.8 km/h 94% 0.0 mm 0 W/m2
03:13 4.0 °C 3.1 °C 1023.6 hPa NNW 8.7 km/h 13.4 km/h 94% 0.0 mm 0 W/m2
03:18 4.0 °C 3.1 °C 1023.6 hPa NNW 8.7 km/h 13.4 km/h 94% 0.0 mm 0 W/m2
03:23 3.9 °C 3.2 °C 1023.2 hPa NNW 8.7 km/h 13.4 km/h 95% 0.0 mm 0 W/m2
03:28 4.0 °C 3.1 °C 1023.2 hPa NNW 8.7 km/h 13.4 km/h 94% 0.0 mm 0 W/m2
03:33 4.0 °C 3.1 °C 1023.2 hPa NNW 9.7 km/h 17.2 km/h 94% 0.0 mm 0 W/m2
03:38 3.9 °C 3.2 °C 1023.2 hPa NNW 9.7 km/h 17.2 km/h 95% 0.0 mm 0 W/m2
03:43 4.0 °C 3.1 °C 1023.2 hPa NNW 11.1 km/h 15.8 km/h 94% 0.0 mm 0 W/m2
03:48 4.0 °C 3.1 °C 1023.2 hPa NNW 11.1 km/h 15.8 km/h 94% 0.0 mm 0 W/m2
03:53 4.0 °C 3.1 °C 1023.2 hPa NW 7.2 km/h 17.2 km/h 94% 0.0 mm 0 W/m2
03:58 4.1 °C 3.2 °C 1023.2 hPa NNW 9.7 km/h 17.2 km/h 94% 0.0 mm 0 W/m2
04:03 4.2 °C 3.3 °C 1023.2 hPa NNW 11.1 km/h 17.2 km/h 94% 0.0 mm 0 W/m2
04:08 4.3 °C 3.4 °C 1023.6 hPa North 11.1 km/h 17.2 km/h 94% 0.0 mm 0 W/m2
04:13 4.3 °C 3.4 °C 1023.2 hPa NNW 11.1 km/h 17.2 km/h 94% 0.0 mm 0 W/m2
04:18 4.4 °C 3.5 °C 1023.2 hPa NNW 8.7 km/h 15.8 km/h 94% 0.0 mm 0 W/m2
04:23 4.4 °C 3.5 °C 1023.2 hPa NNW 8.7 km/h 15.8 km/h 94% 0.0 mm 0 W/m2
04:28 4.5 °C 3.6 °C 1023.2 hPa NNW 6.1 km/h 14.8 km/h 94% 0.0 mm 0 W/m2
04:33 4.6 °C 3.7 °C 1023.2 hPa NNW 7.2 km/h 13.4 km/h 94% 0.0 mm 0 W/m2
04:38 4.7 °C 3.8 °C 1022.9 hPa North 6.1 km/h 13.4 km/h 94% 0.0 mm 0 W/m2
04:43 4.8 °C 3.8 °C 1023.2 hPa NNW 11.1 km/h 14.8 km/h 93% 0.0 mm 0 W/m2
04:48 4.7 °C 3.7 °C 1022.9 hPa NNW 6.1 km/h 14.8 km/h 93% 0.0 mm 0 W/m2
04:54 4.4 °C 3.2 °C 1023.2 hPa NNW 8.7 km/h 13.4 km/h 92% 0.0 mm 0 W/m2
04:59 4.3 °C 3.1 °C 1023.2 hPa NNW 8.7 km/h 13.4 km/h 92% 0.0 mm 0 W/m2
05:04 4.3 °C 3.3 °C 1022.9 hPa NNW 6.1 km/h 13.4 km/h 93% 0.0 mm 0 W/m2
05:09 4.4 °C 3.4 °C 1022.9 hPa North 5.0 km/h 13.4 km/h 93% 0.0 mm 0 W/m2
05:14 4.4 °C 3.4 °C 1023.2 hPa NNW 5.0 km/h 11.1 km/h 93% 0.0 mm 0 W/m2
05:19 4.4 °C 3.4 °C 1022.9 hPa NNW 6.1 km/h 11.1 km/h 93% 0.0 mm 0 W/m2
05:24 4.4 °C 3.4 °C 1023.2 hPa NNW 7.2 km/h 9.7 km/h 93% 0.0 mm 0 W/m2
05:29 4.4 °C 3.4 °C 1023.2 hPa NW 6.1 km/h 9.7 km/h 93% 0.0 mm 0 W/m2
05:34 4.5 °C 3.4 °C 1023.2 hPa NW 6.1 km/h 12.2 km/h 93% 0.0 mm 0 W/m2
05:39 4.5 °C 3.4 °C 1023.2 hPa NW 6.1 km/h 12.2 km/h 93% 0.0 mm 0 W/m2
05:44 4.4 °C 3.4 °C 1022.9 hPa NNW 5.0 km/h 11.1 km/h 93% 0.0 mm 0 W/m2
05:49 4.4 °C 3.4 °C 1022.9 hPa NNW 6.1 km/h 11.1 km/h 93% 0.0 mm 0 W/m2
05:59 4.3 °C 3.3 °C 1022.9 hPa NNW 5.0 km/h 11.1 km/h 93% 0.0 mm 0 W/m2
06:04 4.3 °C 3.3 °C 1022.9 hPa NNW 6.1 km/h 11.1 km/h 93% 0.0 mm 0 W/m2
06:09 4.3 °C 3.3 °C 1022.6 hPa NNW 6.1 km/h 11.1 km/h 93% 0.0 mm 0 W/m2
06:14 4.4 °C 3.5 °C 1023.2 hPa NW 6.1 km/h 15.8 km/h 94% 0.0 mm 0 W/m2
06:19 4.6 °C 3.7 °C 1022.9 hPa NW 6.1 km/h 15.8 km/h 94% 0.0 mm 0 W/m2
06:24 4.5 °C 3.6 °C 1022.9 hPa NW 11.1 km/h 15.8 km/h 94% 0.0 mm 0 W/m2
06:29 4.5 °C 3.4 °C 1022.9 hPa NNW 8.7 km/h 17.2 km/h 93% 0.0 mm 0 W/m2
06:34 4.4 °C 3.4 °C 1022.9 hPa NNW 6.1 km/h 17.2 km/h 93% 0.0 mm 0 W/m2
06:39 4.3 °C 3.3 °C 1023.2 hPa NW 7.2 km/h 13.4 km/h 93% 0.0 mm 0 W/m2
06:44 4.2 °C 3.2 °C 1022.9 hPa NW 8.7 km/h 13.4 km/h 93% 0.0 mm 0 W/m2
06:49 4.2 °C 3.2 °C 1022.9 hPa NW 8.7 km/h 12.2 km/h 93% 0.0 mm 0 W/m2
06:54 4.1 °C 3.1 °C 1022.9 hPa NW 8.7 km/h 13.4 km/h 93% 0.0 mm 0 W/m2
06:59 4.1 °C 3.2 °C 1022.9 hPa NW 9.7 km/h 14.8 km/h 94% 0.0 mm 0 W/m2
07:04 4.2 °C 3.3 °C 1022.9 hPa NW 8.7 km/h 14.8 km/h 94% 0.0 mm 0 W/m2
07:09 4.4 °C 3.5 °C 1022.9 hPa NW 9.7 km/h 13.4 km/h 94% 0.0 mm 0 W/m2
07:14 4.5 °C 3.6 °C 1022.9 hPa NNW 9.7 km/h 14.8 km/h 94% 0.0 mm 0 W/m2
07:19 4.5 °C 3.6 °C 1022.9 hPa NNW 9.7 km/h 14.8 km/h 94% 0.0 mm 0 W/m2
07:24 4.4 °C 3.4 °C 1022.9 hPa NW 8.7 km/h 14.8 km/h 93% 0.0 mm 0 W/m2
07:29 4.4 °C 3.4 °C 1022.9 hPa NNW 6.1 km/h 14.8 km/h 93% 0.0 mm 2 W/m2
07:34 4.5 °C 3.4 °C 1022.9 hPa NNW 7.2 km/h 14.8 km/h 93% 0.0 mm 5 W/m2
07:39 4.7 °C 3.7 °C 1022.9 hPa NNW 7.2 km/h 14.8 km/h 93% 0.0 mm 17 W/m2
07:44 4.9 °C 3.9 °C 1022.9 hPa NNW 9.7 km/h 14.8 km/h 93% 0.0 mm 40 W/m2
07:49 5.2 °C 4.0 °C 1022.9 hPa NNW 7.2 km/h 13.4 km/h 92% 0.0 mm 53 W/m2
07:54 5.5 °C 4.3 °C 1022.9 hPa NNW 8.7 km/h 13.4 km/h 92% 0.0 mm 59 W/m2
07:59 5.7 °C 4.3 °C 1022.9 hPa NW 7.2 km/h 12.2 km/h 91% 0.0 mm 79 W/m2
08:05 6.1 °C 4.4 °C 1022.9 hPa NW 9.7 km/h 13.4 km/h 89% 0.0 mm 87 W/m2
08:10 6.5 °C 4.5 °C 1022.9 hPa NW 7.2 km/h 13.4 km/h 87% 0.0 mm 97 W/m2
08:15 6.8 °C 4.6 °C 1023.2 hPa NNW 9.7 km/h 13.4 km/h 86% 0.0 mm 74 W/m2
08:20 6.9 °C 4.6 °C 1022.9 hPa NNW 11.1 km/h 14.8 km/h 85% 0.0 mm 89 W/m2
08:25 7.1 °C 4.6 °C 1022.9 hPa NNW 9.7 km/h 14.8 km/h 84% 0.0 mm 64 W/m2
08:30 7.2 °C 4.5 °C 1022.9 hPa NW 8.7 km/h 14.8 km/h 83% 0.0 mm 55 W/m2
08:35 6.9 °C 4.4 °C 1022.9 hPa NNW 7.2 km/h 14.8 km/h 84% 0.0 mm 62 W/m2
08:40 7.1 °C 4.6 °C 1023.2 hPa NNW 7.2 km/h 12.2 km/h 84% 0.0 mm 68 W/m2
08:45 7.3 °C 4.8 °C 1022.9 hPa NNW 7.2 km/h 12.2 km/h 84% 0.0 mm 61 W/m2
08:51 8.2 °C 5.8 °C 1022.9 hPa NNW 11.1 km/h 15.8 km/h 85% 0.0 mm 131 W/m2
08:56 9.2 °C 5.9 °C 1022.9 hPa North 9.7 km/h 17.2 km/h 80% 0.0 mm 176 W/m2
09:01 9.8 °C 5.8 °C 1022.9 hPa NNW 9.7 km/h 17.2 km/h 76% 0.0 mm 189 W/m2
09:06 9.8 °C 5.6 °C 1022.9 hPa NNW 7.2 km/h 15.8 km/h 75% 0.0 mm 183 W/m2
09:11 9.6 °C 5.4 °C 1022.9 hPa NNW 5.0 km/h 15.8 km/h 75% 0.0 mm 81 W/m2
09:16 9.1 °C 5.1 °C 1022.9 hPa NNW 9.7 km/h 14.8 km/h 76% 0.0 mm 203 W/m2
09:21 9.6 °C 5.8 °C 1022.9 hPa NNW 8.7 km/h 14.8 km/h 77% 0.0 mm 104 W/m2
09:26 10.0 °C 5.8 °C 1022.9 hPa NNW 14.8 km/h 18.3 km/h 75% 0.0 mm 90 W/m2
09:32 10.3 °C 5.9 °C 1022.9 hPa North 8.7 km/h 18.3 km/h 74% 0.0 mm 94 W/m2
09:37 10.3 °C 5.9 °C 1022.9 hPa North 9.7 km/h 15.8 km/h 74% 0.0 mm 115 W/m2
09:42 10.8 °C 6.3 °C 1023.2 hPa NNW 12.2 km/h 18.3 km/h 74% 0.0 mm 130 W/m2
09:47 12.1 °C 6.6 °C 1023.2 hPa North 9.7 km/h 19.5 km/h 69% 0.0 mm 135 W/m2
09:52 12.7 °C 6.5 °C 1023.2 hPa North 9.7 km/h 19.5 km/h 66% 0.0 mm 140 W/m2
09:57 12.9 °C 6.3 °C 1023.2 hPa North 7.2 km/h 20.9 km/h 64% 0.0 mm 114 W/m2
10:07 12.1 °C 6.2 °C 1023.2 hPa North 11.1 km/h 17.2 km/h 67% 0.0 mm 107 W/m2
10:12 12.3 °C 6.3 °C 1023.2 hPa North 7.2 km/h 15.8 km/h 67% 0.0 mm 106 W/m2
10:17 12.2 °C 6.4 °C 1023.2 hPa North 8.7 km/h 15.8 km/h 68% 0.0 mm 106 W/m2
10:22 12.2 °C 6.7 °C 1023.6 hPa NNW 8.7 km/h 17.2 km/h 69% 0.0 mm 126 W/m2
10:27 12.8 °C 7.1 °C 1023.6 hPa NNW 7.2 km/h 17.2 km/h 68% 0.0 mm 125 W/m2
10:32 12.9 °C 6.9 °C 1023.6 hPa North 8.7 km/h 13.4 km/h 67% 0.0 mm 109 W/m2
10:37 12.6 °C 6.6 °C 1023.2 hPa North 5.0 km/h 13.4 km/h 67% 0.0 mm 103 W/m2
10:42 12.7 °C 6.5 °C 1023.2 hPa North 8.7 km/h 13.4 km/h 66% 0.0 mm 109 W/m2
10:47 12.8 °C 6.4 °C 1023.6 hPa NNE 7.2 km/h 13.4 km/h 65% 0.0 mm 115 W/m2
10:52 13.2 °C 6.8 °C 1023.2 hPa North 6.1 km/h 12.2 km/h 65% 0.0 mm 121 W/m2
10:57 13.5 °C 7.1 °C 1023.2 hPa NNE 6.1 km/h 11.1 km/h 65% 0.0 mm 120 W/m2
11:02 13.5 °C 7.1 °C 1023.2 hPa NNE 2.6 km/h 9.7 km/h 65% 0.0 mm 120 W/m2
11:07 13.7 °C 7.2 °C 1022.9 hPa North 3.5 km/h 9.7 km/h 65% 0.0 mm 111 W/m2
11:12 13.8 °C 7.1 °C 1022.9 hPa North 7.2 km/h 11.1 km/h 64% 0.0 mm 108 W/m2
11:17 14.1 °C 7.2 °C 1022.9 hPa North 7.2 km/h 12.2 km/h 63% 0.0 mm 99 W/m2
11:22 13.8 °C 7.3 °C 1022.9 hPa North 7.2 km/h 12.2 km/h 65% 0.0 mm 108 W/m2
11:27 13.8 °C 7.3 °C 1022.6 hPa NNW 7.2 km/h 12.2 km/h 65% 0.0 mm 121 W/m2
11:32 13.8 °C 7.3 °C 1022.6 hPa NNW 3.5 km/h 12.2 km/h 65% 0.0 mm 126 W/m2
11:37 14.2 °C 7.1 °C 1022.6 hPa North 6.1 km/h 12.2 km/h 62% 0.0 mm 131 W/m2
11:42 14.3 °C 6.2 °C 1022.2 hPa NNW 8.7 km/h 15.8 km/h 58% 0.0 mm 114 W/m2
11:47 14.0 °C 6.1 °C 1022.2 hPa North 11.1 km/h 17.2 km/h 59% 0.0 mm 110 W/m2
11:52 13.8 °C 6.2 °C 1022.2 hPa North 8.7 km/h 17.2 km/h 60% 0.0 mm 121 W/m2
11:57 13.9 °C 6.5 °C 1021.9 hPa North 11.1 km/h 17.2 km/h 61% 0.0 mm 135 W/m2
12:02 14.1 °C 6.7 °C 1021.9 hPa North 8.7 km/h 20.9 km/h 61% 0.0 mm 137 W/m2
12:07 14.2 °C 6.6 °C 1021.9 hPa North 12.2 km/h 23.3 km/h 60% 0.0 mm 138 W/m2
12:12 14.6 °C 7.2 °C 1021.9 hPa NNW 14.8 km/h 25.6 km/h 61% 0.0 mm 159 W/m2
12:17 14.7 °C 7.0 °C 1021.9 hPa NNW 12.2 km/h 29.4 km/h 60% 0.0 mm 149 W/m2
12:22 14.5 °C 6.8 °C 1021.6 hPa NNW 20.9 km/h 36.7 km/h 60% 0.0 mm 142 W/m2
12:27 14.5 °C 6.8 °C 1021.6 hPa North 12.2 km/h 36.7 km/h 60% 0.0 mm 155 W/m2
12:32 15.3 °C 7.1 °C 1021.6 hPa North 23.3 km/h 36.7 km/h 58% 0.0 mm 147 W/m2
12:37 15.1 °C 6.4 °C 1021.6 hPa NNW 18.3 km/h 31.7 km/h 56% 0.0 mm 144 W/m2
12:42 15.1 °C 6.7 °C 1021.2 hPa NNW 12.2 km/h 31.7 km/h 57% 0.0 mm 131 W/m2
12:47 14.8 °C 6.6 °C 1021.2 hPa NNW 13.4 km/h 30.6 km/h 58% 0.0 mm 136 W/m2
12:52 15.0 °C 6.8 °C 1021.2 hPa North 17.2 km/h 28.0 km/h 58% 0.0 mm 140 W/m2
12:57 15.0 °C 6.6 °C 1021.2 hPa North 13.4 km/h 21.9 km/h 57% 0.0 mm 145 W/m2
13:02 14.7 °C 6.5 °C 1020.9 hPa NNW 14.8 km/h 27.0 km/h 58% 0.0 mm 134 W/m2
13:07 14.5 °C 6.6 °C 1020.9 hPa NNW 12.2 km/h 27.0 km/h 59% 0.0 mm 127 W/m2
13:12 14.3 °C 6.2 °C 1020.9 hPa NNW 13.4 km/h 24.5 km/h 58% 0.0 mm 123 W/m2
13:17 14.2 °C 6.6 °C 1020.9 hPa NNW 9.7 km/h 24.5 km/h 60% 0.0 mm 113 W/m2
13:22 14.1 °C 6.2 °C 1020.9 hPa NNW 11.1 km/h 24.5 km/h 59% 0.0 mm 118 W/m2
13:27 14.0 °C 5.9 °C 1020.5 hPa NNW 14.8 km/h 28.0 km/h 58% 0.0 mm 114 W/m2
13:32 13.9 °C 6.0 °C 1020.5 hPa NNW 11.1 km/h 28.0 km/h 59% 0.0 mm 102 W/m2
13:37 13.9 °C 6.3 °C 1020.5 hPa NNW 15.8 km/h 27.0 km/h 60% 0.0 mm 97 W/m2
13:42 13.6 °C 6.0 °C 1020.5 hPa North 11.1 km/h 27.0 km/h 60% 0.0 mm 85 W/m2
13:47 13.6 °C 6.2 °C 1020.5 hPa NNW 14.8 km/h 27.0 km/h 61% 0.0 mm 71 W/m2
13:52 13.6 °C 6.2 °C 1020.2 hPa NNW 14.8 km/h 24.5 km/h 61% 0.0 mm 66 W/m2
13:57 13.6 °C 6.2 °C 1020.2 hPa NNW 13.4 km/h 20.9 km/h 61% 0.0 mm 68 W/m2
14:02 13.6 °C 6.2 °C 1020.2 hPa NNW 5.0 km/h 19.5 km/h 61% 0.0 mm 65 W/m2
14:07 13.6 °C 6.4 °C 1020.5 hPa NNW 6.1 km/h 15.8 km/h 62% 0.0 mm 55 W/m2
14:12 13.5 °C 6.6 °C 1020.2 hPa North 5.0 km/h 9.7 km/h 63% 0.0 mm 51 W/m2
14:17 13.4 °C 6.7 °C 1020.2 hPa North 2.6 km/h 13.4 km/h 64% 0.0 mm 47 W/m2
14:22 13.3 °C 6.9 °C 1019.9 hPa North 5.0 km/h 13.4 km/h 65% 0.0 mm 42 W/m2
14:27 13.2 °C 6.8 °C 1020.2 hPa NNE 5.0 km/h 11.1 km/h 65% 0.0 mm 40 W/m2
14:32 13.2 °C 6.8 °C 1020.2 hPa North 3.5 km/h 13.4 km/h 65% 0.0 mm 40 W/m2
14:37 13.2 °C 6.8 °C 1020.2 hPa North 2.6 km/h 13.4 km/h 65% 0.0 mm 40 W/m2
14:42 13.1 °C 6.7 °C 1020.2 hPa North 2.6 km/h 8.7 km/h 65% 0.0 mm 38 W/m2
14:47 13.1 °C 6.7 °C 1020.2 hPa North 2.6 km/h 7.2 km/h 65% 0.0 mm 37 W/m2
14:52 13.0 °C 6.6 °C 1020.2 hPa North 5.0 km/h 7.2 km/h 65% 0.0 mm 33 W/m2
14:57 13.0 °C 6.6 °C 1020.2 hPa NNE 5.0 km/h 11.1 km/h 65% 0.0 mm 29 W/m2
15:02 12.9 °C 6.3 °C 1020.5 hPa NNE 2.6 km/h 11.1 km/h 64% 0.0 mm 28 W/m2
15:07 12.8 °C 6.2 °C 1020.2 hPa NE 2.6 km/h 7.2 km/h 64% 0.0 mm 28 W/m2
15:12 12.8 °C 6.2 °C 1020.2 hPa NNE 3.5 km/h 6.1 km/h 64% 0.0 mm 29 W/m2
15:17 12.7 °C 6.1 °C 1019.9 hPa North 2.6 km/h 5.0 km/h 64% 0.0 mm 30 W/m2
15:22 12.7 °C 6.1 °C 1019.9 hPa North 6.1 km/h 7.2 km/h 64% 0.0 mm 31 W/m2
15:27 12.7 °C 6.1 °C 1019.9 hPa North 5.0 km/h 9.7 km/h 64% 0.0 mm 29 W/m2
15:32 12.6 °C 6.0 °C 1019.9 hPa NNW 5.0 km/h 9.7 km/h 64% 0.0 mm 29 W/m2
15:37 12.7 °C 5.8 °C 1019.9 hPa NNW 2.6 km/h 8.7 km/h 63% 0.0 mm 27 W/m2
15:42 12.8 °C 5.7 °C 1019.5 hPa North 5.0 km/h 9.7 km/h 62% 0.0 mm 25 W/m2
15:47 12.8 °C 5.7 °C 1019.5 hPa North 5.0 km/h 9.7 km/h 62% 0.0 mm 22 W/m2
15:52 12.8 °C 5.7 °C 1019.5 hPa NNE 6.1 km/h 11.1 km/h 62% 0.0 mm 20 W/m2
15:57 12.8 °C 5.7 °C 1019.5 hPa NNE 5.0 km/h 11.1 km/h 62% 0.0 mm 20 W/m2
16:02 12.8 °C 5.7 °C 1019.5 hPa NNE 7.2 km/h 12.2 km/h 62% 0.0 mm 19 W/m2
16:07 12.8 °C 5.7 °C 1019.5 hPa North 3.5 km/h 12.2 km/h 62% 0.0 mm 19 W/m2
16:12 12.7 °C 5.6 °C 1019.5 hPa North 7.2 km/h 11.1 km/h 62% 0.0 mm 21 W/m2
16:17 12.8 °C 5.7 °C 1019.5 hPa North 5.0 km/h 9.7 km/h 62% 0.0 mm 18 W/m2
16:22 13.0 °C 5.7 °C 1019.5 hPa NNE 7.2 km/h 12.2 km/h 61% 0.0 mm 20 W/m2
16:27 13.2 °C 5.6 °C 1019.5 hPa NNE 7.2 km/h 12.2 km/h 60% 0.0 mm 14 W/m2
16:32 13.2 °C 5.6 °C 1019.5 hPa North 3.5 km/h 12.2 km/h 60% 0.0 mm 10 W/m2
16:37 13.1 °C 5.5 °C 1019.5 hPa NNE 2.6 km/h 9.7 km/h 60% 0.0 mm 9 W/m2
16:42 13.2 °C 5.6 °C 1019.5 hPa North 1.1 km/h 11.1 km/h 60% 0.0 mm 10 W/m2
16:47 13.3 °C 5.7 °C 1019.5 hPa NNE 2.6 km/h 11.1 km/h 60% 0.0 mm 4 W/m2
16:52 12.9 °C 5.6 °C 1019.5 hPa NE 3.5 km/h 8.7 km/h 61% 0.0 mm 2 W/m2
16:57 12.6 °C 5.5 °C 1019.5 hPa NE 5.0 km/h 8.7 km/h 62% 0.0 mm 0 W/m2
17:02 12.4 °C 5.3 °C 1019.2 hPa ENE 6.1 km/h 9.7 km/h 62% 0.0 mm 0 W/m2
17:07 12.3 °C 5.4 °C 1019.2 hPa ENE 5.0 km/h 9.7 km/h 63% 0.0 mm 0 W/m2
17:12 12.3 °C 5.4 °C 1019.2 hPa NE 7.2 km/h 11.1 km/h 63% 0.0 mm 0 W/m2
17:17 12.3 °C 5.4 °C 1019.2 hPa NNE 9.7 km/h 15.8 km/h 63% 0.0 mm 0 W/m2
17:22 12.5 °C 5.4 °C 1019.2 hPa North 5.0 km/h 15.8 km/h 62% 0.0 mm 0 W/m2
17:27 12.6 °C 5.5 °C 1019.5 hPa North 6.1 km/h 11.1 km/h 62% 0.0 mm 0 W/m2
17:32 12.6 °C 5.3 °C 1019.5 hPa North 11.1 km/h 15.8 km/h 61% 0.0 mm 0 W/m2
17:37 12.7 °C 5.4 °C 1019.5 hPa North 6.1 km/h 15.8 km/h 61% 0.0 mm 0 W/m2
17:42 12.7 °C 5.4 °C 1019.2 hPa North 8.7 km/h 15.8 km/h 61% 0.0 mm 0 W/m2
17:47 12.8 °C 5.4 °C 1019.2 hPa NNW 6.1 km/h 17.2 km/h 61% 0.0 mm 0 W/m2
17:52 12.8 °C 5.4 °C 1019.2 hPa North 8.7 km/h 18.3 km/h 61% 0.0 mm 0 W/m2
17:57 12.8 °C 5.4 °C 1019.2 hPa North 7.2 km/h 18.3 km/h 61% 0.0 mm 0 W/m2
18:02 12.8 °C 5.4 °C 1019.2 hPa North 7.2 km/h 18.3 km/h 61% 0.0 mm 0 W/m2
18:07 12.9 °C 5.6 °C 1019.2 hPa North 15.8 km/h 24.5 km/h 61% 0.0 mm 0 W/m2
18:10 13.0 °C 5.4 °C 1019.2 hPa North 11.1 km/h 24.5 km/h 60% 0.0 mm 0 W/m2
18:15 12.9 °C 5.6 °C 1019.2 hPa North 8.7 km/h 24.5 km/h 61% 0.0 mm 0 W/m2
18:20 13.0 °C 5.7 °C 1019.2 hPa NNW 13.4 km/h 23.3 km/h 61% 0.0 mm 0 W/m2
18:25 13.0 °C 5.7 °C 1019.2 hPa NNW 14.8 km/h 23.3 km/h 61% 0.0 mm 0 W/m2
18:30 13.0 °C 5.7 °C 1018.8 hPa NNW 11.1 km/h 23.3 km/h 61% 0.0 mm 0 W/m2
18:35 13.0 °C 5.7 °C 1018.8 hPa NNW 8.7 km/h 23.3 km/h 61% 0.0 mm 0 W/m2
18:40 12.8 °C 5.7 °C 1019.2 hPa NNW 15.8 km/h 29.4 km/h 62% 0.0 mm 0 W/m2
18:45 12.9 °C 5.6 °C 1019.2 hPa NNW 7.2 km/h 29.4 km/h 61% 0.0 mm 0 W/m2
18:50 12.8 °C 5.4 °C 1019.2 hPa North 8.7 km/h 23.3 km/h 61% 0.0 mm 0 W/m2
18:55 12.8 °C 5.4 °C 1019.2 hPa NNW 7.2 km/h 19.5 km/h 61% 0.0 mm 0 W/m2
19:00 12.8 °C 5.4 °C 1019.2 hPa NNW 11.1 km/h 19.5 km/h 61% 0.0 mm 0 W/m2
19:05 12.8 °C 5.7 °C 1019.5 hPa NNW 15.8 km/h 25.6 km/h 62% 0.0 mm 0 W/m2
19:10 12.8 °C 5.7 °C 1019.2 hPa NNW 9.7 km/h 25.6 km/h 62% 0.0 mm 0 W/m2
19:15 12.7 °C 5.8 °C 1019.2 hPa NNW 8.7 km/h 19.5 km/h 63% 0.0 mm 0 W/m2
19:20 12.7 °C 5.8 °C 1019.2 hPa NNW 9.7 km/h 19.5 km/h 63% 0.0 mm 0 W/m2
19:25 12.7 °C 5.8 °C 1019.2 hPa NNW 9.7 km/h 19.5 km/h 63% 0.0 mm 0 W/m2
19:30 12.7 °C 5.8 °C 1019.2 hPa NNW 8.7 km/h 19.5 km/h 63% 0.0 mm 0 W/m2
19:35 12.7 °C 5.8 °C 1019.2 hPa NNW 8.7 km/h 18.3 km/h 63% 0.0 mm 0 W/m2
19:40 12.7 °C 5.8 °C 1019.2 hPa North 14.8 km/h 19.5 km/h 63% 0.0 mm 0 W/m2
19:45 12.7 °C 5.8 °C 1019.2 hPa North 11.1 km/h 19.5 km/h 63% 0.0 mm 0 W/m2
19:50 12.7 °C 5.8 °C 1019.2 hPa North 13.4 km/h 20.9 km/h 63% 0.0 mm 0 W/m2
19:55 12.6 °C 6.0 °C 1019.2 hPa NNE 7.2 km/h 20.9 km/h 64% 0.0 mm 0 W/m2
20:00 12.6 °C 6.2 °C 1019.2 hPa North 11.1 km/h 17.2 km/h 65% 0.0 mm 0 W/m2
20:05 12.7 °C 6.5 °C 1019.2 hPa NNW 12.2 km/h 20.9 km/h 66% 0.0 mm 0 W/m2
20:10 13.0 °C 6.8 °C 1019.2 hPa NNW 18.3 km/h 23.3 km/h 66% 0.0 mm 0 W/m2
20:15 13.1 °C 6.7 °C 1019.2 hPa NNW 6.1 km/h 23.3 km/h 65% 0.0 mm 0 W/m2
20:20 12.9 °C 6.5 °C 1019.2 hPa North 7.2 km/h 21.9 km/h 65% 0.0 mm 0 W/m2
20:25 12.7 °C 6.3 °C 1019.2 hPa North 2.6 km/h 11.1 km/h 65% 0.0 mm 0 W/m2
20:30 12.5 °C 6.1 °C 1019.2 hPa NNE 2.6 km/h 9.7 km/h 65% 0.0 mm 0 W/m2
20:36 12.2 °C 5.8 °C 1019.2 hPa Calm   6.1 km/h 65% 0.0 mm 0 W/m2
20:41 12.0 °C 5.6 °C 1019.5 hPa Calm   2.6 km/h 65% 0.0 mm 0 W/m2
20:46 11.9 °C 5.8 °C 1019.2 hPa Calm   2.6 km/h 66% 0.0 mm 0 W/m2
20:51 11.8 °C 5.9 °C 1019.2 hPa South 3.5 km/h 6.1 km/h 67% 0.0 mm 0 W/m2
20:56 11.7 °C 6.0 °C 1019.2 hPa Calm   7.2 km/h 68% 0.0 mm 0 W/m2
21:01 11.5 °C 6.0 °C 1019.5 hPa Calm   7.2 km/h 69% 0.0 mm 0 W/m2
21:06 11.3 °C 5.8 °C 1019.2 hPa ENE 1.1 km/h 3.5 km/h 69% 0.0 mm 0 W/m2
21:11 11.3 °C 6.1 °C 1019.2 hPa Calm   2.6 km/h 70% 0.0 mm 0 W/m2
21:16 11.3 °C 6.1 °C 1019.2 hPa SSE 3.5 km/h 5.0 km/h 70% 0.0 mm 0 W/m2
21:21 11.3 °C 5.8 °C 1019.5 hPa SW 3.5 km/h 6.1 km/h 69% 0.0 mm 0 W/m2
21:26 10.9 °C 6.1 °C 1019.2 hPa Calm   6.1 km/h 72% 0.0 mm 0 W/m2
21:31 10.8 °C 6.2 °C 1019.5 hPa North 1.1 km/h 6.1 km/h 73% 0.0 mm 0 W/m2
21:36 10.9 °C 6.3 °C 1019.5 hPa North 3.5 km/h 6.1 km/h 73% 0.0 mm 0 W/m2
21:41 10.8 °C 6.2 °C 1019.5 hPa North 1.1 km/h 6.1 km/h 73% 0.0 mm 0 W/m2
21:46 10.9 °C 6.3 °C 1019.5 hPa NNW 2.6 km/h 5.0 km/h 73% 0.0 mm 0 W/m2
21:51 10.8 °C 6.2 °C 1019.5 hPa Calm   5.0 km/h 73% 0.0 mm 0 W/m2
21:56 10.7 °C 6.3 °C 1019.5 hPa WSW 2.6 km/h 5.0 km/h 74% 0.0 mm 0 W/m2
22:01 10.6 °C 6.3 °C 1019.5 hPa Calm   5.0 km/h 75% 0.0 mm 0 W/m2
22:06 10.4 °C 6.2 °C 1019.2 hPa SSE 1.1 km/h 5.0 km/h 75% 0.0 mm 0 W/m2
22:11 10.3 °C 6.1 °C 1019.2 hPa East 1.1 km/h 3.5 km/h 75% 0.0 mm 0 W/m2
22:16 10.2 °C 5.9 °C 1019.2 hPa Calm   3.5 km/h 75% 0.0 mm 0 W/m2
22:21 10.0 °C 5.8 °C 1019.5 hPa North 1.1 km/h 2.6 km/h 75% 0.0 mm 0 W/m2
22:26 9.8 °C 5.9 °C 1019.2 hPa SW 2.6 km/h 5.0 km/h 77% 0.0 mm 0 W/m2
22:31 10.1 °C 6.3 °C 1019.2 hPa SW 1.1 km/h 5.0 km/h 77% 0.0 mm 0 W/m2
22:36 10.0 °C 6.2 °C 1019.2 hPa Calm   3.5 km/h 77% 0.0 mm 0 W/m2
22:41 9.8 °C 6.2 °C 1019.2 hPa NW 1.1 km/h 3.5 km/h 78% 0.0 mm 0 W/m2
22:46 9.5 °C 6.2 °C 1019.2 hPa North 1.1 km/h 5.0 km/h 80% 0.0 mm 0 W/m2
22:51 9.4 °C 6.1 °C 1019.2 hPa Calm   5.0 km/h 80% 0.0 mm 0 W/m2
22:56 9.4 °C 6.3 °C 1019.2 hPa Calm   3.5 km/h 81% 0.0 mm 0 W/m2
23:01 9.3 °C 6.2 °C 1019.5 hPa Calm   5.0 km/h 81% 0.0 mm 0 W/m2
23:06 9.2 °C 6.4 °C 1019.5 hPa West 1.1 km/h 5.0 km/h 83% 0.0 mm 0 W/m2
23:11 9.4 °C 6.8 °C 1019.5 hPa SSW 5.0 km/h 9.7 km/h 84% 0.0 mm 0 W/m2
23:15 9.8 °C 7.2 °C 1019.5 hPa WSW 7.2 km/h 17.2 km/h 84% 0.0 mm 0 W/m2
23:18 10.0 °C 7.1 °C 1019.2 hPa WSW 8.7 km/h 17.2 km/h 82% 0.0 mm 0 W/m2
23:23 10.7 °C 7.2 °C 1019.5 hPa SW 6.1 km/h 17.2 km/h 79% 0.0 mm 0 W/m2
23:28 10.7 °C 7.0 °C 1019.5 hPa WSW 7.2 km/h 13.4 km/h 78% 0.0 mm 0 W/m2
23:33 10.7 °C 7.0 °C 1019.5 hPa North 2.6 km/h 9.7 km/h 78% 0.0 mm 0 W/m2
23:38 10.6 °C 6.7 °C 1019.5 hPa North 3.5 km/h 8.7 km/h 77% 0.0 mm 0 W/m2
23:43 10.4 °C 6.7 °C 1019.5 hPa Calm   7.2 km/h 78% 0.0 mm 0 W/m2
23:48 10.2 °C 6.6 °C 1019.5 hPa WNW 1.1 km/h 5.0 km/h 78% 0.0 mm 0 W/m2
23:53 10.2 °C 6.7 °C 1019.5 hPa NNE 1.1 km/h 5.0 km/h 79% 0.0 mm 0 W/m2
23:58 10.3 °C 7.0 °C 1019.5 hPa Calm   11.1 km/h 80% 0.0 mm 0 W/m2
Northern Hawkes Bay. New Zealand Historic Data
Compliments of Weather Underground - 2 mb